sensor_id;sensor_type;location;lat;lon;timestamp;pressure;altitude;pressure_sealevel;temperature;humidity
25430;BME280;13360;48.152;-1.788;2024-01-10T00:01:30;102258.91;;;5.62;100.00
25430;BME280;13360;48.152;-1.788;2024-01-10T00:03:55;102256.91;;;5.51;100.00
25430;BME280;13360;48.152;-1.788;2024-01-10T00:06:21;102250.97;;;5.54;100.00
25430;BME280;13360;48.152;-1.788;2024-01-10T00:08:46;102242.88;;;5.41;100.00
25430;BME280;13360;48.152;-1.788;2024-01-10T00:11:11;102260.72;;;5.50;100.00
25430;BME280;13360;48.152;-1.788;2024-01-10T00:13:37;102242.50;;;5.56;100.00
25430;BME280;13360;48.152;-1.788;2024-01-10T00:16:02;102218.38;;;5.46;100.00
25430;BME280;13360;48.152;-1.788;2024-01-10T00:18:27;102223.31;;;5.37;100.00
25430;BME280;13360;48.152;-1.788;2024-01-10T00:20:52;102223.44;;;5.24;100.00
25430;BME280;13360;48.152;-1.788;2024-01-10T00:23:21;102249.22;;;5.41;100.00
25430;BME280;13360;48.152;-1.788;2024-01-10T00:25:47;102234.25;;;5.37;100.00
25430;BME280;13360;48.152;-1.788;2024-01-10T00:28:12;102238.47;;;5.58;100.00
25430;BME280;13360;48.152;-1.788;2024-01-10T00:30:37;102246.50;;;5.78;100.00
25430;BME280;13360;48.152;-1.788;2024-01-10T00:33:03;102238.13;;;5.73;100.00
25430;BME280;13360;48.152;-1.788;2024-01-10T00:35:28;102224.63;;;5.71;100.00
25430;BME280;13360;48.152;-1.788;2024-01-10T00:37:53;102203.38;;;5.48;100.00
25430;BME280;13360;48.152;-1.788;2024-01-10T00:40:18;102219.38;;;5.51;100.00
25430;BME280;13360;48.152;-1.788;2024-01-10T00:42:44;102239.28;;;5.65;100.00
25430;BME280;13360;48.152;-1.788;2024-01-10T00:45:09;102236.44;;;5.72;100.00
25430;BME280;13360;48.152;-1.788;2024-01-10T00:47:34;102239.19;;;5.72;100.00
25430;BME280;13360;48.152;-1.788;2024-01-10T00:49:59;102204.91;;;5.44;100.00
25430;BME280;13360;48.152;-1.788;2024-01-10T00:52:24;102202.16;;;5.26;100.00
25430;BME280;13360;48.152;-1.788;2024-01-10T00:54:50;102243.28;;;5.44;100.00
25430;BME280;13360;48.152;-1.788;2024-01-10T00:57:15;102237.81;;;5.63;100.00
25430;BME280;13360;48.152;-1.788;2024-01-10T00:59:40;102209.00;;;5.54;100.00
25430;BME280;13360;48.152;-1.788;2024-01-10T01:02:05;102208.88;;;5.48;100.00
25430;BME280;13360;48.152;-1.788;2024-01-10T01:04:31;102218.44;;;5.58;100.00
25430;BME280;13360;48.152;-1.788;2024-01-10T01:06:56;102205.13;;;5.61;100.00
25430;BME280;13360;48.152;-1.788;2024-01-10T01:09:21;102213.06;;;5.69;100.00
25430;BME280;13360;48.152;-1.788;2024-01-10T01:11:47;102183.22;;;5.43;100.00
25430;BME280;13360;48.152;-1.788;2024-01-10T01:14:12;102211.31;;;5.57;100.00
25430;BME280;13360;48.152;-1.788;2024-01-10T01:16:37;102204.16;;;5.56;100.00
25430;BME280;13360;48.152;-1.788;2024-01-10T01:19:02;102215.19;;;5.49;100.00
25430;BME280;13360;48.152;-1.788;2024-01-10T01:21:27;102232.38;;;5.56;100.00
25430;BME280;13360;48.152;-1.788;2024-01-10T01:23:53;102224.84;;;5.51;100.00
25430;BME280;13360;48.152;-1.788;2024-01-10T01:26:18;102215.19;;;5.67;100.00
25430;BME280;13360;48.152;-1.788;2024-01-10T01:28:44;102220.81;;;5.72;100.00
25430;BME280;13360;48.152;-1.788;2024-01-10T01:31:09;102189.31;;;5.45;100.00
25430;BME280;13360;48.152;-1.788;2024-01-10T01:33:34;102185.03;;;5.31;100.00
25430;BME280;13360;48.152;-1.788;2024-01-10T01:35:59;102220.28;;;5.45;100.00
25430;BME280;13360;48.152;-1.788;2024-01-10T01:38:25;102229.72;;;5.49;100.00
25430;BME280;13360;48.152;-1.788;2024-01-10T01:40:50;102224.97;;;5.38;100.00
25430;BME280;13360;48.152;-1.788;2024-01-10T01:43:22;102225.16;;;5.43;100.00
25430;BME280;13360;48.152;-1.788;2024-01-10T01:45:52;102235.06;;;5.44;100.00
25430;BME280;13360;48.152;-1.788;2024-01-10T01:48:18;102231.69;;;5.61;100.00
25430;BME280;13360;48.152;-1.788;2024-01-10T01:50:44;102210.84;;;5.41;100.00
25430;BME280;13360;48.152;-1.788;2024-01-10T01:53:10;102225.31;;;5.48;100.00
25430;BME280;13360;48.152;-1.788;2024-01-10T01:55:36;102222.00;;;5.40;100.00
25430;BME280;13360;48.152;-1.788;2024-01-10T01:58:02;102243.59;;;5.55;100.00
25430;BME280;13360;48.152;-1.788;2024-01-10T02:00:27;102216.59;;;5.33;100.00
25430;BME280;13360;48.152;-1.788;2024-01-10T02:02:52;102233.03;;;5.33;100.00
25430;BME280;13360;48.152;-1.788;2024-01-10T02:05:18;102251.81;;;5.55;100.00
25430;BME280;13360;48.152;-1.788;2024-01-10T02:07:43;102243.31;;;5.63;100.00
25430;BME280;13360;48.152;-1.788;2024-01-10T02:10:08;102238.25;;;5.60;100.00
25430;BME280;13360;48.152;-1.788;2024-01-10T02:12:33;102235.22;;;5.68;100.00
25430;BME280;13360;48.152;-1.788;2024-01-10T02:14:59;102222.94;;;5.52;100.00
25430;BME280;13360;48.152;-1.788;2024-01-10T02:17:24;102195.97;;;5.31;100.00
25430;BME280;13360;48.152;-1.788;2024-01-10T02:19:51;102234.28;;;5.56;100.00
25430;BME280;13360;48.152;-1.788;2024-01-10T02:22:32;102221.16;;;5.39;100.00
25430;BME280;13360;48.152;-1.788;2024-01-10T02:24:57;102235.34;;;5.36;100.00
25430;BME280;13360;48.152;-1.788;2024-01-10T02:27:22;102263.22;;;5.51;100.00
25430;BME280;13360;48.152;-1.788;2024-01-10T02:29:47;102228.97;;;5.17;100.00
25430;BME280;13360;48.152;-1.788;2024-01-10T02:32:13;102255.41;;;5.30;100.00
25430;BME280;13360;48.152;-1.788;2024-01-10T02:34:38;102247.25;;;5.48;100.00
25430;BME280;13360;48.152;-1.788;2024-01-10T02:37:03;102228.78;;;5.37;100.00
25430;BME280;13360;48.152;-1.788;2024-01-10T02:39:28;102213.97;;;5.20;100.00
25430;BME280;13360;48.152;-1.788;2024-01-10T02:41:54;102246.91;;;5.38;100.00
25430;BME280;13360;48.152;-1.788;2024-01-10T02:44:19;102236.72;;;5.45;100.00
25430;BME280;13360;48.152;-1.788;2024-01-10T02:46:44;102232.53;;;5.43;100.00
25430;BME280;13360;48.152;-1.788;2024-01-10T02:49:09;102246.94;;;5.57;100.00
25430;BME280;13360;48.152;-1.788;2024-01-10T02:51:35;102201.53;;;5.24;100.00
25430;BME280;13360;48.152;-1.788;2024-01-10T02:54:00;102236.97;;;5.44;100.00
25430;BME280;13360;48.152;-1.788;2024-01-10T02:56:25;102242.22;;;5.45;100.00
25430;BME280;13360;48.152;-1.788;2024-01-10T02:58:50;102217.06;;;5.30;100.00
25430;BME280;13360;48.152;-1.788;2024-01-10T03:01:16;102235.34;;;5.36;100.00
25430;BME280;13360;48.152;-1.788;2024-01-10T03:03:41;102234.88;;;5.39;100.00
25430;BME280;13360;48.152;-1.788;2024-01-10T03:06:06;102217.63;;;5.14;100.00
25430;BME280;13360;48.152;-1.788;2024-01-10T03:08:31;102248.88;;;5.31;100.00
25430;BME280;13360;48.152;-1.788;2024-01-10T03:10:56;102225.88;;;5.32;100.00
25430;BME280;13360;48.152;-1.788;2024-01-10T03:13:22;102219.50;;;5.38;100.00
25430;BME280;13360;48.152;-1.788;2024-01-10T03:15:47;102217.66;;;5.32;100.00
25430;BME280;13360;48.152;-1.788;2024-01-10T03:18:12;102228.31;;;5.40;100.00
25430;BME280;13360;48.152;-1.788;2024-01-10T03:20:38;102232.69;;;5.48;100.00
25430;BME280;13360;48.152;-1.788;2024-01-10T03:23:03;102236.88;;;5.50;100.00
25430;BME280;13360;48.152;-1.788;2024-01-10T03:25:28;102227.38;;;5.53;100.00
25430;BME280;13360;48.152;-1.788;2024-01-10T03:27:53;102234.28;;;5.56;100.00
25430;BME280;13360;48.152;-1.788;2024-01-10T03:30:18;102240.34;;;5.64;100.00
25430;BME280;13360;48.152;-1.788;2024-01-10T03:32:44;102221.50;;;5.49;100.00
25430;BME280;13360;48.152;-1.788;2024-01-10T03:35:10;102217.38;;;5.40;100.00
25430;BME280;13360;48.152;-1.788;2024-01-10T03:37:35;102213.78;;;5.40;100.00
25430;BME280;13360;48.152;-1.788;2024-01-10T03:40:00;102219.91;;;5.42;100.00
25430;BME280;13360;48.152;-1.788;2024-01-10T03:42:25;102231.63;;;5.49;100.00
25430;BME280;13360;48.152;-1.788;2024-01-10T03:44:51;102234.06;;;5.57;100.00
25430;BME280;13360;48.152;-1.788;2024-01-10T03:47:16;102237.41;;;5.59;100.00
25430;BME280;13360;48.152;-1.788;2024-01-10T03:49:41;102230.88;;;5.60;100.00
25430;BME280;13360;48.152;-1.788;2024-01-10T03:52:06;102215.19;;;5.49;100.00
25430;BME280;13360;48.152;-1.788;2024-01-10T03:54:31;102225.16;;;5.62;100.00
25430;BME280;13360;48.152;-1.788;2024-01-10T03:56:57;102221.88;;;5.53;100.00
25430;BME280;13360;48.152;-1.788;2024-01-10T03:59:22;102208.50;;;5.45;100.00
25430;BME280;13360;48.152;-1.788;2024-01-10T04:01:47;102214.34;;;5.48;100.00
25430;BME280;13360;48.152;-1.788;2024-01-10T04:04:13;102178.69;;;5.30;100.00
25430;BME280;13360;48.152;-1.788;2024-01-10T04:06:38;102175.34;;;5.28;100.00
25430;BME280;13360;48.152;-1.788;2024-01-10T04:09:04;102186.47;;;5.33;100.00
25430;BME280;13360;48.152;-1.788;2024-01-10T04:11:33;102190.50;;;5.31;100.00
25430;BME280;13360;48.152;-1.788;2024-01-10T04:13:58;102171.22;;;5.19;100.00
25430;BME280;13360;48.152;-1.788;2024-01-10T04:16:23;102188.00;;;5.29;100.00
25430;BME280;13360;48.152;-1.788;2024-01-10T04:18:48;102173.81;;;5.14;100.00
25430;BME280;13360;48.152;-1.788;2024-01-10T04:21:14;102168.78;;;5.11;100.00
25430;BME280;13360;48.152;-1.788;2024-01-10T04:23:39;102186.31;;;5.28;100.00
25430;BME280;13360;48.152;-1.788;2024-01-10T04:26:04;102156.00;;;5.05;100.00
25430;BME280;13360;48.152;-1.788;2024-01-10T04:28:29;102152.66;;;5.03;100.00
25430;BME280;13360;48.152;-1.788;2024-01-10T04:30:55;102149.50;;;4.99;100.00
25430;BME280;13360;48.152;-1.788;2024-01-10T04:33:20;102136.41;;;4.83;100.00
25430;BME280;13360;48.152;-1.788;2024-01-10T04:35:45;102158.50;;;5.06;100.00
25430;BME280;13360;48.152;-1.788;2024-01-10T04:38:10;102154.47;;;5.09;100.00
25430;BME280;13360;48.152;-1.788;2024-01-10T04:40:35;102167.00;;;5.23;100.00
25430;BME280;13360;48.152;-1.788;2024-01-10T04:43:01;102120.84;;;5.02;100.00
25430;BME280;13360;48.152;-1.788;2024-01-10T04:45:26;102138.97;;;5.21;100.00
25430;BME280;13360;48.152;-1.788;2024-01-10T04:47:51;102166.44;;;5.33;100.00
25430;BME280;13360;48.152;-1.788;2024-01-10T04:50:16;102151.75;;;5.27;100.00
25430;BME280;13360;48.152;-1.788;2024-01-10T04:52:41;102120.44;;;4.98;100.00
25430;BME280;13360;48.152;-1.788;2024-01-10T04:55:07;102139.56;;;5.05;100.00
25430;BME280;13360;48.152;-1.788;2024-01-10T04:57:33;102150.66;;;5.10;100.00
25430;BME280;13360;48.152;-1.788;2024-01-10T04:59:58;102138.50;;;5.06;100.00
25430;BME280;13360;48.152;-1.788;2024-01-10T05:02:23;102129.28;;;5.00;100.00
25430;BME280;13360;48.152;-1.788;2024-01-10T05:04:49;102124.69;;;4.94;100.00
25430;BME280;13360;48.152;-1.788;2024-01-10T05:07:14;102144.44;;;5.03;100.00
25430;BME280;13360;48.152;-1.788;2024-01-10T05:09:39;102142.34;;;4.98;100.00
25430;BME280;13360;48.152;-1.788;2024-01-10T05:12:04;102156.53;;;5.13;100.00
25430;BME280;13360;48.152;-1.788;2024-01-10T05:14:30;102169.88;;;5.28;100.00
25430;BME280;13360;48.152;-1.788;2024-01-10T05:16:55;102161.66;;;5.28;100.00
25430;BME280;13360;48.152;-1.788;2024-01-10T05:19:20;102148.88;;;5.22;100.00
25430;BME280;13360;48.152;-1.788;2024-01-10T05:21:45;102121.28;;;4.99;100.00
25430;BME280;13360;48.152;-1.788;2024-01-10T05:24:11;102126.72;;;5.05;100.00
25430;BME280;13360;48.152;-1.788;2024-01-10T05:26:36;102136.38;;;5.08;100.00
25430;BME280;13360;48.152;-1.788;2024-01-10T05:29:01;102105.75;;;4.93;100.00
25430;BME280;13360;48.152;-1.788;2024-01-10T05:31:26;102110.56;;;4.97;100.00
25430;BME280;13360;48.152;-1.788;2024-01-10T05:33:51;102106.28;;;4.83;100.00
25430;BME280;13360;48.152;-1.788;2024-01-10T05:36:18;102122.34;;;4.98;100.00
25430;BME280;13360;48.152;-1.788;2024-01-10T05:38:46;102117.47;;;5.00;100.00
25430;BME280;13360;48.152;-1.788;2024-01-10T05:41:11;102115.50;;;4.88;100.00
25430;BME280;13360;48.152;-1.788;2024-01-10T05:43:37;102122.94;;;5.00;100.00
25430;BME280;13360;48.152;-1.788;2024-01-10T05:46:02;102138.03;;;5.09;100.00
25430;BME280;13360;48.152;-1.788;2024-01-10T05:48:29;102137.72;;;5.17;100.00
25430;BME280;13360;48.152;-1.788;2024-01-10T05:50:55;102116.13;;;5.09;100.00
25430;BME280;13360;48.152;-1.788;2024-01-10T05:53:20;102108.75;;;5.09;100.00
25430;BME280;13360;48.152;-1.788;2024-01-10T05:55:45;102112.09;;;5.11;100.00
25430;BME280;13360;48.152;-1.788;2024-01-10T05:58:10;102097.47;;;4.99;100.00
25430;BME280;13360;48.152;-1.788;2024-01-10T06:00:36;102120.53;;;5.10;100.00
25430;BME280;13360;48.152;-1.788;2024-01-10T06:03:01;102116.22;;;5.02;100.00
25430;BME280;13360;48.152;-1.788;2024-01-10T06:05:26;102089.88;;;4.83;100.00
25430;BME280;13360;48.152;-1.788;2024-01-10T06:07:52;102135.91;;;5.11;100.00
25430;BME280;13360;48.152;-1.788;2024-01-10T06:10:17;102140.47;;;5.17;100.00
25430;BME280;13360;48.152;-1.788;2024-01-10T06:12:42;102145.94;;;5.17;100.00
25430;BME280;13360;48.152;-1.788;2024-01-10T06:15:08;102105.75;;;4.93;100.00
25430;BME280;13360;48.152;-1.788;2024-01-10T06:17:33;102112.06;;;4.93;100.00
25430;BME280;13360;48.152;-1.788;2024-01-10T06:19:58;102133.78;;;5.13;100.00
25430;BME280;13360;48.152;-1.788;2024-01-10T06:22:28;102138.97;;;5.21;100.00
25430;BME280;13360;48.152;-1.788;2024-01-10T06:24:53;102134.16;;;5.16;100.00
25430;BME280;13360;48.152;-1.788;2024-01-10T06:27:18;102124.44;;;5.20;100.00
25430;BME280;13360;48.152;-1.788;2024-01-10T06:29:44;102123.44;;;5.15;100.00
25430;BME280;13360;48.152;-1.788;2024-01-10T06:32:10;102106.09;;;5.03;100.00
25430;BME280;13360;48.152;-1.788;2024-01-10T06:34:35;102116.59;;;5.06;100.00
25430;BME280;13360;48.152;-1.788;2024-01-10T06:37:00;102123.28;;;5.10;100.00
25430;BME280;13360;48.152;-1.788;2024-01-10T06:39:26;102105.38;;;4.89;100.00
25430;BME280;13360;48.152;-1.788;2024-01-10T06:41:52;102125.09;;;4.98;100.00
25430;BME280;13360;48.152;-1.788;2024-01-10T06:44:17;102135.31;;;5.09;100.00
25430;BME280;13360;48.152;-1.788;2024-01-10T06:46:43;102120.22;;;5.00;100.00
25430;BME280;13360;48.152;-1.788;2024-01-10T06:49:09;102128.38;;;5.06;100.00
25430;BME280;13360;48.152;-1.788;2024-01-10T06:51:34;102128.63;;;5.05;100.00
25430;BME280;13360;48.152;-1.788;2024-01-10T06:53:59;102136.03;;;4.98;100.00
25430;BME280;13360;48.152;-1.788;2024-01-10T06:56:31;102137.88;;;5.04;100.00
25430;BME280;13360;48.152;-1.788;2024-01-10T06:58:56;102150.66;;;5.10;100.00
25430;BME280;13360;48.152;-1.788;2024-01-10T07:01:22;102140.75;;;4.90;100.00
25430;BME280;13360;48.152;-1.788;2024-01-10T07:03:47;102139.06;;;4.89;100.00
25430;BME280;13360;48.152;-1.788;2024-01-10T07:06:12;102152.31;;;4.93;100.00
25430;BME280;13360;48.152;-1.788;2024-01-10T07:08:40;102129.19;;;4.64;100.00
25430;BME280;13360;48.152;-1.788;2024-01-10T07:11:05;102147.06;;;4.66;100.00
25430;BME280;13360;48.152;-1.788;2024-01-10T07:13:30;102150.03;;;4.65;100.00
25430;BME280;13360;48.152;-1.788;2024-01-10T07:15:56;102146.91;;;4.61;100.00
25430;BME280;13360;48.152;-1.788;2024-01-10T07:18:21;102164.09;;;4.68;100.00
25430;BME280;13360;48.152;-1.788;2024-01-10T07:20:47;102153.00;;;4.63;100.00
25430;BME280;13360;48.152;-1.788;2024-01-10T07:23:12;102184.44;;;4.79;100.00
25430;BME280;13360;48.152;-1.788;2024-01-10T07:25:37;102190.47;;;4.87;100.00
25430;BME280;13360;48.152;-1.788;2024-01-10T07:28:02;102193.50;;;4.79;100.00
25430;BME280;13360;48.152;-1.788;2024-01-10T07:30:28;102186.44;;;4.65;100.00
25430;BME280;13360;48.152;-1.788;2024-01-10T07:32:58;102184.78;;;4.64;100.00
25430;BME280;13360;48.152;-1.788;2024-01-10T07:35:23;102208.69;;;4.75;100.00
25430;BME280;13360;48.152;-1.788;2024-01-10T07:37:48;102210.78;;;4.80;100.00
25430;BME280;13360;48.152;-1.788;2024-01-10T07:40:13;102208.22;;;4.78;100.00
25430;BME280;13360;48.152;-1.788;2024-01-10T07:42:39;102202.88;;;4.65;100.00
25430;BME280;13360;48.152;-1.788;2024-01-10T07:45:05;102220.00;;;4.85;100.00
25430;BME280;13360;48.152;-1.788;2024-01-10T07:47:30;102203.66;;;4.72;100.00
25430;BME280;13360;48.152;-1.788;2024-01-10T07:49:56;102214.34;;;4.80;100.00
25430;BME280;13360;48.152;-1.788;2024-01-10T07:52:21;102189.63;;;4.62;100.00
25430;BME280;13360;48.152;-1.788;2024-01-10T07:54:47;102222.56;;;4.80;100.00
25430;BME280;13360;48.152;-1.788;2024-01-10T07:57:13;102223.56;;;4.86;100.00
25430;BME280;13360;48.152;-1.788;2024-01-10T07:59:38;102213.06;;;4.83;100.00
25430;BME280;13360;48.152;-1.788;2024-01-10T08:02:03;102224.41;;;4.86;100.00
25430;BME280;13360;48.152;-1.788;2024-01-10T08:04:29;102222.13;;;4.83;100.00
25430;BME280;13360;48.152;-1.788;2024-01-10T08:06:54;102216.63;;;4.83;100.00
25430;BME280;13360;48.152;-1.788;2024-01-10T08:09:20;102242.81;;;5.04;100.00
25430;BME280;13360;48.152;-1.788;2024-01-10T08:11:45;102220.75;;;4.93;100.00
25430;BME280;13360;48.152;-1.788;2024-01-10T08:14:11;102204.03;;;4.76;100.00
25430;BME280;13360;48.152;-1.788;2024-01-10T08:16:36;102208.81;;;4.62;100.00
25430;BME280;13360;48.152;-1.788;2024-01-10T08:19:01;102233.09;;;4.77;100.00
25430;BME280;13360;48.152;-1.788;2024-01-10T08:21:27;102241.50;;;4.82;100.00
25430;BME280;13360;48.152;-1.788;2024-01-10T08:23:52;102242.50;;;4.87;100.00
25430;BME280;13360;48.152;-1.788;2024-01-10T08:26:17;102247.25;;;4.99;100.00
25430;BME280;13360;48.152;-1.788;2024-01-10T08:28:42;102229.38;;;4.96;100.00
25430;BME280;13360;48.152;-1.788;2024-01-10T08:31:07;102215.34;;;4.86;100.00
25430;BME280;13360;48.152;-1.788;2024-01-10T08:33:33;102238.03;;;4.93;100.00
25430;BME280;13360;48.152;-1.788;2024-01-10T08:35:58;102248.28;;;5.04;100.00
25430;BME280;13360;48.152;-1.788;2024-01-10T08:38:24;102242.13;;;5.09;100.00
25430;BME280;13360;48.152;-1.788;2024-01-10T08:40:49;102255.53;;;5.17;100.00
25430;BME280;13360;48.152;-1.788;2024-01-10T08:43:14;102236.19;;;4.87;100.00
25430;BME280;13360;48.152;-1.788;2024-01-10T08:45:39;102211.94;;;4.66;100.00
25430;BME280;13360;48.152;-1.788;2024-01-10T08:48:05;102253.53;;;4.81;100.00
25430;BME280;13360;48.152;-1.788;2024-01-10T08:50:31;102263.34;;;4.88;100.00
25430;BME280;13360;48.152;-1.788;2024-01-10T08:52:57;102241.13;;;4.72;100.00
25430;BME280;13360;48.152;-1.788;2024-01-10T08:55:22;102259.59;;;4.83;100.00
25430;BME280;13360;48.152;-1.788;2024-01-10T08:57:47;102279.25;;;5.05;100.00
25430;BME280;13360;48.152;-1.788;2024-01-10T09:00:14;102242.34;;;4.82;100.00
25430;BME280;13360;48.152;-1.788;2024-01-10T09:02:39;102251.16;;;4.84;100.00
25430;BME280;13360;48.152;-1.788;2024-01-10T09:05:05;102262.69;;;4.93;100.00
25430;BME280;13360;48.152;-1.788;2024-01-10T09:07:32;102260.78;;;4.94;100.00
25430;BME280;13360;48.152;-1.788;2024-01-10T09:09:58;102243.81;;;4.78;100.00
25430;BME280;13360;48.152;-1.788;2024-01-10T09:12:23;102254.22;;;4.70;100.00
25430;BME280;13360;48.152;-1.788;2024-01-10T09:14:48;102265.09;;;4.76;100.00
25430;BME280;13360;48.152;-1.788;2024-01-10T09:17:14;102266.94;;;4.89;100.00
25430;BME280;13360;48.152;-1.788;2024-01-10T09:19:39;102268.69;;;5.08;100.00
25430;BME280;13360;48.152;-1.788;2024-01-10T09:22:04;102246.53;;;4.85;100.00
25430;BME280;13360;48.152;-1.788;2024-01-10T09:24:29;102268.97;;;5.00;100.00
25430;BME280;13360;48.152;-1.788;2024-01-10T09:26:55;102244.63;;;4.85;100.00
25430;BME280;13360;48.152;-1.788;2024-01-10T09:29:20;102259.56;;;4.89;100.00
25430;BME280;13360;48.152;-1.788;2024-01-10T09:31:45;102273.25;;;4.89;100.00
25430;BME280;13360;48.152;-1.788;2024-01-10T09:34:11;102275.31;;;4.94;100.00
25430;BME280;13360;48.152;-1.788;2024-01-10T09:36:36;102271.84;;;4.80;100.00
25430;BME280;13360;48.152;-1.788;2024-01-10T09:39:01;102304.50;;;5.07;100.00
25430;BME280;13360;48.152;-1.788;2024-01-10T09:41:30;102269.22;;;4.92;100.00
25430;BME280;13360;48.152;-1.788;2024-01-10T09:43:57;102263.97;;;4.90;100.00
25430;BME280;13360;48.152;-1.788;2024-01-10T09:46:22;102262.59;;;4.75;100.00
25430;BME280;13360;48.152;-1.788;2024-01-10T09:48:48;102268.41;;;4.60;100.00
25430;BME280;13360;48.152;-1.788;2024-01-10T09:51:13;102289.09;;;4.81;100.00
25430;BME280;13360;48.152;-1.788;2024-01-10T09:53:40;102320.78;;;4.95;100.00
25430;BME280;13360;48.152;-1.788;2024-01-10T09:56:09;102307.94;;;4.96;100.00
25430;BME280;13360;48.152;-1.788;2024-01-10T09:58:35;102315.47;;;5.07;100.00
25430;BME280;13360;48.152;-1.788;2024-01-10T10:01:04;102300.53;;;5.03;100.00
25430;BME280;13360;48.152;-1.788;2024-01-10T10:03:30;102280.91;;;4.74;100.00
25430;BME280;13360;48.152;-1.788;2024-01-10T10:05:57;102304.88;;;4.85;100.00
25430;BME280;13360;48.152;-1.788;2024-01-10T10:08:22;102328.16;;;4.95;100.00
25430;BME280;13360;48.152;-1.788;2024-01-10T10:10:48;102308.56;;;4.98;100.00
25430;BME280;13360;48.152;-1.788;2024-01-10T10:13:29;102314.19;;;5.09;100.00
25430;BME280;13360;48.152;-1.788;2024-01-10T10:15:58;102315.34;;;5.20;100.00
25430;BME280;13360;48.152;-1.788;2024-01-10T10:18:24;102296.06;;;5.08;100.00
25430;BME280;13360;48.152;-1.788;2024-01-10T10:21:03;102305.72;;;5.11;100.00
25430;BME280;13360;48.152;-1.788;2024-01-10T10:23:30;102326.03;;;5.28;100.00
25430;BME280;13360;48.152;-1.788;2024-01-10T10:25:56;102322.41;;;5.34;100.00
25430;BME280;13360;48.152;-1.788;2024-01-10T10:28:21;102285.72;;;5.10;100.00
25430;BME280;13360;48.152;-1.788;2024-01-10T10:30:46;102300.41;;;5.16;100.00
25430;BME280;13360;48.152;-1.788;2024-01-10T10:33:11;102297.34;;;5.06;100.00
25430;BME280;13360;48.152;-1.788;2024-01-10T10:35:37;102310.09;;;5.18;100.00
25430;BME280;13360;48.152;-1.788;2024-01-10T10:38:02;102318.06;;;5.27;100.00
25430;BME280;13360;48.152;-1.788;2024-01-10T10:40:28;102300.88;;;5.13;100.00
25430;BME280;13360;48.152;-1.788;2024-01-10T10:42:56;102297.34;;;5.06;100.00
25430;BME280;13360;48.152;-1.788;2024-01-10T10:45:22;102300.31;;;5.04;100.00
25430;BME280;13360;48.152;-1.788;2024-01-10T10:47:59;102316.84;;;5.16;100.00
25430;BME280;13360;48.152;-1.788;2024-01-10T10:50:27;102319.44;;;5.36;100.00
25430;BME280;13360;48.152;-1.788;2024-01-10T10:52:52;102307.19;;;5.38;100.00
25430;BME280;13360;48.152;-1.788;2024-01-10T10:55:20;102325.19;;;5.53;100.00
25430;BME280;13360;48.152;-1.788;2024-01-10T10:57:46;102314.59;;;5.63;100.00
25430;BME280;13360;48.152;-1.788;2024-01-10T11:00:15;102298.84;;;5.51;100.00
25430;BME280;13360;48.152;-1.788;2024-01-10T11:02:41;102297.91;;;5.39;100.00
25430;BME280;13360;48.152;-1.788;2024-01-10T11:05:07;102298.34;;;5.36;100.00
25430;BME280;13360;48.152;-1.788;2024-01-10T11:07:35;102295.91;;;5.28;100.00
25430;BME280;13360;48.152;-1.788;2024-01-10T11:10:00;102314.69;;;5.49;100.00
25430;BME280;13360;48.152;-1.788;2024-01-10T11:12:32;102320.34;;;5.55;100.00
25430;BME280;13360;48.152;-1.788;2024-01-10T11:20:43;102279.53;;;5.46;100.00
25430;BME280;13360;48.152;-1.788;2024-01-10T11:22:57;102297.94;;;5.58;100.00
25430;BME280;13360;48.152;-1.788;2024-01-10T11:25:26;102304.22;;;5.65;100.00
25430;BME280;13360;48.152;-1.788;2024-01-10T11:27:54;102293.09;;;5.78;100.00
25430;BME280;13360;48.152;-1.788;2024-01-10T11:30:47;102279.31;;;5.66;100.00
25430;BME280;13360;48.152;-1.788;2024-01-10T11:33:22;102257.88;;;5.38;100.00
25430;BME280;13360;48.152;-1.788;2024-01-10T11:36:10;102271.44;;;5.51;100.00
25430;BME280;13360;48.152;-1.788;2024-01-10T11:38:40;102277.41;;;5.67;100.00
25430;BME280;13360;48.152;-1.788;2024-01-10T11:41:06;102261.19;;;5.65;100.00
25430;BME280;13360;48.152;-1.788;2024-01-10T11:43:31;102257.63;;;5.65;100.00
25430;BME280;13360;48.152;-1.788;2024-01-10T11:45:56;102256.00;;;5.57;100.00
25430;BME280;13360;48.152;-1.788;2024-01-10T11:48:28;102258.59;;;5.52;100.00
25430;BME280;13360;48.152;-1.788;2024-01-10T11:50:54;102263.97;;;5.59;100.00
25430;BME280;13360;48.152;-1.788;2024-01-10T11:53:38;102250.44;;;5.45;100.00
25430;BME280;13360;48.152;-1.788;2024-01-10T11:56:11;102268.72;;;5.51;100.00
25430;BME280;13360;48.152;-1.788;2024-01-10T11:58:51;102273.63;;;5.68;100.00
25430;BME280;13360;48.152;-1.788;2024-01-10T12:01:17;102255.63;;;5.54;100.00
25430;BME280;13360;48.152;-1.788;2024-01-10T12:03:42;102270.25;;;5.66;100.00
25430;BME280;13360;48.152;-1.788;2024-01-10T12:06:07;102268.97;;;5.87;100.00
25430;BME280;13360;48.152;-1.788;2024-01-10T12:08:33;102248.09;;;5.86;100.00
25430;BME280;13360;48.152;-1.788;2024-01-10T12:10:58;102226.47;;;5.77;100.00
25430;BME280;13360;48.152;-1.788;2024-01-10T12:13:23;102255.13;;;6.00;100.00
25430;BME280;13360;48.152;-1.788;2024-01-10T12:15:48;102234.34;;;5.92;100.00
25430;BME280;13360;48.152;-1.788;2024-01-10T12:18:14;102241.19;;;6.01;100.00
25430;BME280;13360;48.152;-1.788;2024-01-10T12:20:39;102245.75;;;6.07;100.00
25430;BME280;13360;48.152;-1.788;2024-01-10T12:23:04;102209.47;;;5.87;100.00
25430;BME280;13360;48.152;-1.788;2024-01-10T12:25:29;102203.53;;;5.54;100.00
25430;BME280;13360;48.152;-1.788;2024-01-10T12:27:55;102219.53;;;5.57;100.00
25430;BME280;13360;48.152;-1.788;2024-01-10T12:30:20;102230.97;;;5.72;100.00
25430;BME280;13360;48.152;-1.788;2024-01-10T12:32:49;102225.31;;;5.67;100.00
25430;BME280;13360;48.152;-1.788;2024-01-10T12:35:15;102202.31;;;5.49;100.00
25430;BME280;13360;48.152;-1.788;2024-01-10T12:37:52;102233.84;;;5.77;100.00
25430;BME280;13360;48.152;-1.788;2024-01-10T12:40:18;102241.66;;;5.98;100.00